createdAt,value
2023-05-30T00:00:39.476Z,26.06
2023-05-30T00:01:39.581Z,26.11
2023-05-30T00:02:39.786Z,26.11
2023-05-30T00:03:39.788Z,26.09
2023-05-30T00:04:39.856Z,26.11
2023-05-30T00:05:39.938Z,26.11
2023-05-30T00:06:40.016Z,26.13
2023-05-30T00:07:40.109Z,26.14
2023-05-30T00:08:40.243Z,26.13
2023-05-30T00:09:40.293Z,26.17
2023-05-30T00:10:40.395Z,26.13
2023-05-30T00:11:40.464Z,26.19
2023-05-30T00:12:40.534Z,26.15
2023-05-30T00:13:40.625Z,26.13
2023-05-30T00:14:40.689Z,26.11
2023-05-30T00:15:40.858Z,26.15
2023-05-30T00:16:40.895Z,26.11
2023-05-30T00:17:41.018Z,26.12
2023-05-30T00:18:41.092Z,26.15
2023-05-30T00:19:41.233Z,26.09
2023-05-30T00:20:41.320Z,26.15
2023-05-30T00:21:41.323Z,26.18
2023-05-30T00:22:41.412Z,26.16
2023-05-30T00:23:41.503Z,26.15
2023-05-30T00:24:41.604Z,26.15
2023-05-30T00:25:41.711Z,26.11
2023-05-30T00:26:41.819Z,26.15
2023-05-30T00:27:41.877Z,26.15
2023-05-30T00:28:42.055Z,26.15
2023-05-30T00:29:42.067Z,26.09
2023-05-30T00:30:42.121Z,26.08
2023-05-30T00:31:42.335Z,26.07
2023-05-30T00:32:42.377Z,26.12
2023-05-30T00:33:42.393Z,26.08
2023-05-30T00:34:42.505Z,26.12
2023-05-30T00:35:42.599Z,26.15
2023-05-30T00:36:42.672Z,26.15
2023-05-30T00:37:42.769Z,26.12
2023-05-30T00:38:42.854Z,26.14
2023-05-30T00:39:42.923Z,26.17
2023-05-30T00:40:43.037Z,26.11
2023-05-30T00:41:43.126Z,26.14
2023-05-30T00:42:43.179Z,26.08
2023-05-30T00:43:43.268Z,26.15
2023-05-30T00:44:43.382Z,26.12
2023-05-30T00:45:43.488Z,26.11
2023-05-30T00:46:43.641Z,26.14
2023-05-30T00:47:43.629Z,26.08
2023-05-30T00:48:43.692Z,26.12
2023-05-30T00:49:43.779Z,26.11
2023-05-30T00:50:43.890Z,26.09
2023-05-30T00:51:43.997Z,26.08
2023-05-30T00:52:44.110Z,26.12
2023-05-30T00:53:44.166Z,26.12
2023-05-30T00:54:44.260Z,26.05
2023-05-30T00:55:44.362Z,26.12
2023-05-30T00:56:44.514Z,26.12
2023-05-30T00:57:44.572Z,26.11
2023-05-30T00:58:44.601Z,26.17
2023-05-30T00:59:44.730Z,26.11
2023-05-30T01:00:44.804Z,26.08
2023-05-30T01:01:45.025Z,26.08
2023-05-30T01:02:45.039Z,26.06
2023-05-30T01:03:45.114Z,26.13
2023-05-30T01:04:45.115Z,26.12
2023-05-30T01:05:45.199Z,26.09
2023-05-30T01:06:45.294Z,26.08
2023-05-30T01:07:45.501Z,26.09
2023-05-30T01:08:45.426Z,26.06
2023-05-30T01:09:45.534Z,26.11
2023-05-30T01:10:45.583Z,26.09
2023-05-30T01:11:45.706Z,26.05
2023-05-30T01:12:45.793Z,26.13
2023-05-30T01:13:45.876Z,26.03
2023-05-30T01:14:45.966Z,26.10
2023-05-30T01:15:46.086Z,26.15
2023-05-30T01:16:46.148Z,26.06
2023-05-30T01:17:46.188Z,26.08
2023-05-30T01:18:46.280Z,26.08
2023-05-30T01:19:46.393Z,26.08
2023-05-30T01:20:46.677Z,26.09
2023-05-30T01:21:46.560Z,26.06
2023-05-30T01:22:46.650Z,26.08
2023-05-30T01:23:46.734Z,26.12
2023-05-30T01:24:46.846Z,26.06
2023-05-30T01:25:46.923Z,25.98
2023-05-30T01:26:47.042Z,26.01
2023-05-30T01:27:47.135Z,26.06
2023-05-30T01:28:47.222Z,26.03
2023-05-30T01:29:47.292Z,26.10
2023-05-30T01:30:47.390Z,26.11
2023-05-30T01:31:47.643Z,26.09
2023-05-30T01:32:47.617Z,26.09
2023-05-30T01:33:47.709Z,26.06
2023-05-30T01:34:47.745Z,26.02
2023-05-30T01:35:47.845Z,26.05
2023-05-30T01:36:47.918Z,26.06
2023-05-30T01:37:47.993Z,26.10
2023-05-30T01:38:48.103Z,26.10
2023-05-30T01:39:48.165Z,26.13
2023-05-30T01:40:48.259Z,26.13
2023-05-30T01:41:48.323Z,26.20
2023-05-30T01:42:48.462Z,26.14
2023-05-30T01:43:48.538Z,26.20
2023-05-30T01:44:48.596Z,26.22
2023-05-30T01:45:48.836Z,26.23
2023-05-30T01:46:48.879Z,26.22
2023-05-30T01:47:48.975Z,26.23
2023-05-30T01:48:48.999Z,26.22
2023-05-30T01:49:49.068Z,26.22
2023-05-30T01:50:49.203Z,26.23
2023-05-30T01:51:49.276Z,26.26
2023-05-30T01:52:49.332Z,26.26
2023-05-30T01:53:49.416Z,26.19
2023-05-30T01:54:49.505Z,26.23
2023-05-30T01:55:49.598Z,26.19
2023-05-30T01:56:49.648Z,26.17
2023-05-30T01:57:49.734Z,26.31
2023-05-30T01:58:49.769Z,26.32
2023-05-30T01:59:49.830Z,26.38
2023-05-30T02:00:49.844Z,26.35
2023-05-30T02:01:49.922Z,26.40
2023-05-30T02:02:49.969Z,26.45
2023-05-30T02:03:50.000Z,26.47
2023-05-30T02:04:50.078Z,26.49
2023-05-30T02:05:50.222Z,26.50
2023-05-30T02:06:50.237Z,26.47
2023-05-30T02:07:50.364Z,26.49
2023-05-30T02:08:50.410Z,26.52
2023-05-30T02:09:50.496Z,26.49
2023-05-30T02:10:50.569Z,26.52
2023-05-30T02:11:50.637Z,26.50
2023-05-30T02:12:50.742Z,26.50
2023-05-30T02:13:50.818Z,26.51
2023-05-30T02:14:50.881Z,26.53
2023-05-30T02:15:51.001Z,26.49
2023-05-30T02:16:51.102Z,26.49
2023-05-30T02:17:51.208Z,26.48
2023-05-30T02:18:51.232Z,26.49
2023-05-30T02:19:51.309Z,26.54
2023-05-30T02:20:51.520Z,26.57
2023-05-30T02:21:51.502Z,26.51
2023-05-30T02:22:51.587Z,26.51
2023-05-30T02:23:51.704Z,26.51
2023-05-30T02:24:51.822Z,26.50
2023-05-30T02:25:51.894Z,26.54
2023-05-30T02:26:51.966Z,26.52
2023-05-30T02:27:52.043Z,26.46
2023-05-30T02:28:52.127Z,26.52
2023-05-30T02:29:52.192Z,26.54
2023-05-30T02:30:52.301Z,26.54
2023-05-30T02:31:52.454Z,26.51
2023-05-30T02:32:52.525Z,26.54
2023-05-30T02:33:52.559Z,26.50
2023-05-30T02:34:52.729Z,26.55
2023-05-30T02:35:52.764Z,26.55
2023-05-30T02:36:52.864Z,26.54
2023-05-30T02:37:52.904Z,26.54
2023-05-30T02:38:53.001Z,26.57
2023-05-30T02:39:53.090Z,26.57
2023-05-30T02:40:53.185Z,26.55
2023-05-30T02:41:53.255Z,26.55
2023-05-30T02:42:53.390Z,26.54
2023-05-30T02:43:53.410Z,26.58
2023-05-30T02:44:53.518Z,26.54
2023-05-30T02:45:53.593Z,26.58
2023-05-30T02:46:53.748Z,26.58
2023-05-30T02:47:53.789Z,26.54
2023-05-30T02:48:53.816Z,26.60
2023-05-30T02:49:53.897Z,26.55
2023-05-30T02:50:53.981Z,26.60
2023-05-30T02:51:54.045Z,26.57
2023-05-30T02:52:54.127Z,26.54
2023-05-30T02:53:54.216Z,26.57
2023-05-30T02:54:54.303Z,26.58
2023-05-30T02:55:54.378Z,26.55
2023-05-30T02:56:54.442Z,26.55
2023-05-30T02:57:54.543Z,26.54
2023-05-30T02:58:54.626Z,26.58
2023-05-30T02:59:54.730Z,26.50
2023-05-30T03:00:54.835Z,26.53
2023-05-30T03:01:54.962Z,26.52
2023-05-30T03:02:54.974Z,26.50
2023-05-30T03:03:55.093Z,26.54
2023-05-30T03:04:55.131Z,26.46
2023-05-30T03:05:55.204Z,26.52
2023-05-30T03:06:55.493Z,26.47
2023-05-30T03:07:55.404Z,26.53
2023-05-30T03:08:55.481Z,26.50
2023-05-30T03:09:55.608Z,26.53
2023-05-30T03:10:55.866Z,26.50
2023-05-30T03:11:55.765Z,26.53
2023-05-30T03:12:55.881Z,26.46
2023-05-30T03:13:55.963Z,26.55
2023-05-30T03:14:56.060Z,26.49
2023-05-30T03:15:56.178Z,26.50
2023-05-30T03:16:56.223Z,26.48
2023-05-30T03:17:56.327Z,26.49
2023-05-30T03:18:56.423Z,26.53
2023-05-30T03:19:56.533Z,26.49
2023-05-30T03:20:56.878Z,26.48
2023-05-30T03:21:56.722Z,26.51
2023-05-30T03:22:56.824Z,26.53
2023-05-30T03:23:57.000Z,26.54
2023-05-30T03:24:57.008Z,26.53
2023-05-30T03:25:57.108Z,26.44
2023-05-30T03:26:57.202Z,26.40
2023-05-30T03:27:57.308Z,26.44
2023-05-30T03:28:57.413Z,26.39
2023-05-30T03:29:57.585Z,26.42
2023-05-30T03:30:57.964Z,26.46
2023-05-30T03:31:57.667Z,26.45
2023-05-30T03:32:57.760Z,26.59
2023-05-30T03:33:57.834Z,26.64
2023-05-30T03:34:57.937Z,26.67
2023-05-30T03:35:58.013Z,26.74
2023-05-30T03:36:58.108Z,26.72
2023-05-30T03:37:58.153Z,26.74
2023-05-30T03:38:58.228Z,26.74
2023-05-30T03:39:58.323Z,26.69
2023-05-30T03:40:58.668Z,26.67
2023-05-30T03:41:58.462Z,26.67
2023-05-30T03:42:58.563Z,26.64
2023-05-30T03:43:58.664Z,26.62
2023-05-30T03:44:58.715Z,26.61
2023-05-30T03:45:58.863Z,26.64
2023-05-30T03:46:58.872Z,26.63
2023-05-30T03:47:58.964Z,26.66
2023-05-30T03:48:59.056Z,26.64
2023-05-30T03:49:59.196Z,26.60
2023-05-30T03:50:59.559Z,26.63
2023-05-30T03:51:59.336Z,26.66
2023-05-30T03:52:59.466Z,26.70
2023-05-30T03:53:59.560Z,26.66
2023-05-30T03:54:59.657Z,26.67
2023-05-30T03:55:59.738Z,26.71
2023-05-30T03:56:59.849Z,26.70
2023-05-30T03:57:59.923Z,26.65
2023-05-30T03:59:00.009Z,26.66
2023-05-30T04:00:00.174Z,26.64
2023-05-30T04:01:00.224Z,26.63
2023-05-30T04:02:00.321Z,26.67
2023-05-30T04:03:00.541Z,26.64
2023-05-30T04:04:00.535Z,26.67
2023-05-30T04:05:00.522Z,26.68
2023-05-30T04:06:00.621Z,26.67
2023-05-30T04:07:00.731Z,26.68
2023-05-30T04:08:00.774Z,26.73
2023-05-30T04:09:00.904Z,26.67
2023-05-30T04:10:00.982Z,26.72
2023-05-30T04:11:01.058Z,26.72
2023-05-30T04:12:01.142Z,26.68
2023-05-30T04:13:01.225Z,26.71
2023-05-30T04:14:01.385Z,26.67
2023-05-30T04:15:01.387Z,26.66
2023-05-30T04:16:01.618Z,26.62
2023-05-30T04:17:01.531Z,26.68
2023-05-30T04:18:01.634Z,26.66
2023-05-30T04:19:01.707Z,26.67
2023-05-30T04:20:01.818Z,26.64
2023-05-30T04:21:02.200Z,26.64
2023-05-30T04:22:01.914Z,26.71
2023-05-30T04:23:01.960Z,26.70
2023-05-30T04:24:02.017Z,26.73
2023-05-30T04:25:02.120Z,26.74
2023-05-30T04:26:02.143Z,26.71
2023-05-30T04:27:02.218Z,26.75
2023-05-30T04:28:02.314Z,26.77
2023-05-30T04:29:02.347Z,26.77
2023-05-30T04:30:02.435Z,26.75
2023-05-30T04:31:19.054Z,26.80
2023-05-30T04:32:03.598Z,26.79
2023-05-30T04:33:02.717Z,26.77
2023-05-30T04:34:02.596Z,26.75
2023-05-30T04:35:02.639Z,26.78
2023-05-30T04:36:02.717Z,26.79
2023-05-30T04:37:02.749Z,26.75
2023-05-30T04:38:02.773Z,26.79
2023-05-30T04:39:02.836Z,26.79
2023-05-30T04:40:02.861Z,26.83
2023-05-30T04:41:02.888Z,26.81
2023-05-30T04:42:02.943Z,26.78
2023-05-30T04:43:02.960Z,26.86
2023-05-30T04:44:03.036Z,26.84
2023-05-30T04:45:03.058Z,26.84
2023-05-30T04:46:10.366Z,26.94
2023-05-30T04:47:04.184Z,26.90
2023-05-30T04:48:03.179Z,26.95
2023-05-30T04:49:03.402Z,26.95
2023-05-30T04:50:03.263Z,26.93
2023-05-30T04:51:03.285Z,26.95
2023-05-30T04:52:03.300Z,26.97
2023-05-30T04:53:03.353Z,26.95
2023-05-30T04:54:03.439Z,27.01
2023-05-30T04:55:03.446Z,26.94
2023-05-30T04:56:03.498Z,26.92
2023-05-30T04:57:03.545Z,26.96
2023-05-30T04:58:03.622Z,26.92
2023-05-30T04:59:03.622Z,26.90
2023-05-30T05:00:03.663Z,26.92
2023-05-30T05:01:10.753Z,26.87
2023-05-30T05:02:03.771Z,26.86
2023-05-30T05:03:03.981Z,26.84
2023-05-30T05:04:03.958Z,26.89
2023-05-30T05:05:03.964Z,26.89
2023-05-30T05:06:03.986Z,26.90
2023-05-30T05:07:04.027Z,26.89
2023-05-30T05:08:04.044Z,26.94
2023-05-30T05:09:04.078Z,26.94
2023-05-30T05:10:04.151Z,26.87
2023-05-30T05:11:04.178Z,26.93
2023-05-30T05:12:04.235Z,26.94
2023-05-30T05:13:04.231Z,26.97
2023-05-30T05:14:04.287Z,27.04
2023-05-30T05:15:04.331Z,27.00
2023-05-30T05:16:04.401Z,27.06
2023-05-30T05:17:04.410Z,27.09
2023-05-30T05:18:04.479Z,27.07
2023-05-30T05:19:04.505Z,27.22
2023-05-30T05:20:06.057Z,27.21
2023-05-30T05:21:04.814Z,27.26
2023-05-30T05:22:04.618Z,27.28
2023-05-30T05:23:04.641Z,27.30
2023-05-30T05:24:04.728Z,27.28
2023-05-30T05:25:04.730Z,27.28
2023-05-30T05:26:04.782Z,27.29
2023-05-30T05:27:04.837Z,27.24
2023-05-30T05:28:04.976Z,27.22
2023-05-30T05:29:04.943Z,27.18
2023-05-30T05:30:04.955Z,27.14
2023-05-30T05:31:04.982Z,27.14
2023-05-30T05:32:05.069Z,27.16
2023-05-30T05:33:06.762Z,28.28
2023-05-30T05:34:05.112Z,28.16
2023-05-30T05:35:05.157Z,28.08
2023-05-30T05:36:05.508Z,28.25
2023-05-30T05:37:05.648Z,28.29
2023-05-30T05:38:05.275Z,28.32
2023-05-30T05:39:06.453Z,28.50
2023-05-30T05:40:05.389Z,28.80
2023-05-30T05:41:05.462Z,29.05
2023-05-30T05:42:05.640Z,28.77
2023-05-30T05:43:05.478Z,28.92
2023-05-30T05:44:05.524Z,28.95
2023-05-30T05:45:05.582Z,29.59
2023-05-30T05:46:12.706Z,29.36
2023-05-30T05:47:06.188Z,29.36
2023-05-30T05:48:05.890Z,29.53
2023-05-30T05:49:05.784Z,29.37
2023-05-30T05:50:05.889Z,29.19
2023-05-30T05:51:05.972Z,29.54
2023-05-30T05:52:05.955Z,29.71
2023-05-30T05:53:06.249Z,29.48
2023-05-30T05:54:06.025Z,29.05
2023-05-30T05:55:06.078Z,29.30
2023-05-30T05:56:06.131Z,29.26
2023-05-30T05:57:06.133Z,29.25
2023-05-30T05:58:06.222Z,29.33
2023-05-30T05:59:06.231Z,29.39
2023-05-30T06:00:06.294Z,29.01
2023-05-30T06:01:06.314Z,29.56
2023-05-30T06:02:06.434Z,29.14
2023-05-30T06:03:08.771Z,28.93
2023-05-30T06:04:06.595Z,28.61
2023-05-30T06:05:06.498Z,28.60
2023-05-30T06:06:06.532Z,28.73
2023-05-30T06:07:06.596Z,29.02
2023-05-30T06:08:06.678Z,29.18
2023-05-30T06:09:06.665Z,28.90
2023-05-30T06:10:06.763Z,28.84
2023-05-30T06:11:06.698Z,28.87
2023-05-30T06:12:07.883Z,29.04
2023-05-30T06:13:06.794Z,28.97
2023-05-30T06:14:06.843Z,28.93
2023-05-30T06:15:06.891Z,28.87
2023-05-30T06:16:06.949Z,28.97
2023-05-30T06:17:06.941Z,28.81
2023-05-30T06:18:07.262Z,28.88
2023-05-30T06:19:07.079Z,28.58
2023-05-30T06:20:07.105Z,28.64
2023-05-30T06:21:07.168Z,28.47
2023-05-30T06:22:07.211Z,28.54
2023-05-30T06:23:07.677Z,28.69
2023-05-30T06:24:07.193Z,28.32
2023-05-30T06:25:07.282Z,28.36
2023-05-30T06:26:07.290Z,28.18
2023-05-30T06:27:08.050Z,28.12
2023-05-30T06:28:08.268Z,28.08
2023-05-30T06:29:07.552Z,28.15
2023-05-30T06:30:08.239Z,28.05
2023-05-30T06:31:07.505Z,28.01
2023-05-30T06:33:08.600Z,28.08
2023-05-30T06:34:07.612Z,27.84
2023-05-30T06:35:08.155Z,27.98
2023-05-30T06:36:07.677Z,27.94
2023-05-30T06:37:08.131Z,28.75
2023-05-30T06:38:08.167Z,28.06
2023-05-30T06:39:07.758Z,28.05
2023-05-30T06:40:07.806Z,28.04
2023-05-30T06:41:07.820Z,28.65
2023-05-30T06:42:07.889Z,28.73
2023-05-30T06:43:08.000Z,28.50
2023-05-30T06:44:07.968Z,28.07
2023-05-30T06:45:08.013Z,27.71
2023-05-30T06:46:08.062Z,28.13
2023-05-30T06:47:08.117Z,27.83
2023-05-30T06:48:08.273Z,29.08
2023-05-30T06:49:08.158Z,27.97
2023-05-30T06:50:08.302Z,27.88
2023-05-30T06:51:08.260Z,27.61
2023-05-30T06:52:08.343Z,27.98
2023-05-30T06:53:08.452Z,28.40
2023-05-30T06:54:08.644Z,28.43
2023-05-30T06:55:09.332Z,28.47
2023-05-30T06:56:08.637Z,28.44
2023-05-30T06:57:09.730Z,28.17
2023-05-30T06:58:09.216Z,28.08
2023-05-30T06:59:08.916Z,28.64
2023-05-30T07:00:10.050Z,28.62
2023-05-30T07:01:09.934Z,28.30
2023-05-30T07:02:10.294Z,28.11
2023-05-30T07:03:09.355Z,27.97
2023-05-30T07:04:09.717Z,28.33
2023-05-30T07:05:09.938Z,27.88
2023-05-30T07:06:09.301Z,28.05
2023-05-30T07:07:09.381Z,28.14
2023-05-30T07:08:09.717Z,27.89
2023-05-30T07:09:09.430Z,27.88
2023-05-30T07:10:09.530Z,27.71
2023-05-30T07:11:09.522Z,28.60
2023-05-30T07:12:10.484Z,28.01
2023-05-30T07:13:10.605Z,28.42
2023-05-30T07:14:09.995Z,28.03
2023-05-30T07:15:09.741Z,28.13
2023-05-30T07:16:09.797Z,27.87
2023-05-30T07:17:09.933Z,28.15
2023-05-30T07:18:09.838Z,28.19
2023-05-30T07:19:13.098Z,28.03
2023-05-30T07:20:09.996Z,28.07
2023-05-30T07:21:09.975Z,28.12
2023-05-30T07:22:10.032Z,28.15
2023-05-30T07:23:10.080Z,27.73
2023-05-30T07:24:10.108Z,28.32
2023-05-30T07:25:10.160Z,27.56
2023-05-30T07:26:10.225Z,27.63
2023-05-30T07:27:10.240Z,27.98
2023-05-30T07:28:10.731Z,28.02
2023-05-30T07:29:10.340Z,27.83
2023-05-30T07:30:10.422Z,27.65
2023-05-30T07:31:10.449Z,28.24
2023-05-30T07:32:10.488Z,28.03
2023-05-30T07:33:10.742Z,28.41
2023-05-30T07:34:10.544Z,28.20
2023-05-30T07:35:10.665Z,28.33
2023-05-30T07:36:10.677Z,28.75
2023-05-30T07:37:10.719Z,29.38
2023-05-30T07:38:10.764Z,28.65
2023-05-30T07:39:11.205Z,29.01
2023-05-30T07:40:10.849Z,29.57
2023-05-30T07:41:10.918Z,29.54
2023-05-30T07:42:10.923Z,29.44
2023-05-30T07:43:11.240Z,29.45
2023-05-30T07:44:11.034Z,29.56
2023-05-30T07:45:11.030Z,29.55
2023-05-30T07:46:11.115Z,28.94
2023-05-30T07:47:11.123Z,28.50
2023-05-30T07:48:11.137Z,28.32
2023-05-30T07:49:11.194Z,28.11
2023-05-30T07:50:11.277Z,28.01
2023-05-30T07:51:11.282Z,27.41
2023-05-30T07:52:11.272Z,27.25
2023-05-30T07:53:11.329Z,27.15
2023-05-30T07:54:11.754Z,27.25
2023-05-30T07:55:11.423Z,27.18
2023-05-30T07:56:11.455Z,27.32
2023-05-30T07:57:11.533Z,27.29
2023-05-30T07:58:11.605Z,27.23
2023-05-30T07:59:11.583Z,27.34
2023-05-30T08:00:11.636Z,27.22
2023-05-30T08:01:11.699Z,27.37
2023-05-30T08:02:11.773Z,27.44
2023-05-30T08:03:11.913Z,27.57
2023-05-30T08:04:11.932Z,27.68
2023-05-30T08:05:11.875Z,27.84
2023-05-30T08:06:11.917Z,27.94
2023-05-30T08:07:11.946Z,28.00
2023-05-30T08:08:12.027Z,27.94
2023-05-30T08:09:12.050Z,28.06
2023-05-30T08:10:12.064Z,28.06
2023-05-30T08:11:12.192Z,27.94
2023-05-30T08:12:12.186Z,28.00
2023-05-30T08:13:12.204Z,28.04
2023-05-30T08:14:12.220Z,28.02
2023-05-30T08:15:12.288Z,28.01
2023-05-30T08:16:12.355Z,28.01
2023-05-30T08:17:12.422Z,27.91
2023-05-30T08:18:12.513Z,27.96
2023-05-30T08:19:12.493Z,27.84
2023-05-30T08:20:12.640Z,27.84
2023-05-30T08:21:12.551Z,27.85
2023-05-30T08:22:12.591Z,27.87
2023-05-30T08:23:12.644Z,27.63
2023-05-30T08:24:12.678Z,27.42
2023-05-30T08:25:12.717Z,27.29
2023-05-30T08:26:12.750Z,27.28
2023-05-30T08:27:12.834Z,27.33
2023-05-30T08:28:12.876Z,27.22
2023-05-30T08:29:12.930Z,26.97
2023-05-30T08:30:12.964Z,28.13
2023-05-30T08:31:13.038Z,28.32
2023-05-30T08:32:13.076Z,28.29
2023-05-30T08:33:13.101Z,28.88
2023-05-30T08:34:13.281Z,29.66
2023-05-30T08:35:13.196Z,29.31
2023-05-30T08:36:13.274Z,29.05
2023-05-30T08:37:13.350Z,28.93
2023-05-30T08:38:13.418Z,28.11
2023-05-30T08:39:15.675Z,27.80
2023-05-30T08:40:13.575Z,27.37
2023-05-30T08:41:13.629Z,26.85
2023-05-30T08:42:13.687Z,26.73
2023-05-30T08:43:13.702Z,26.86
2023-05-30T08:44:14.257Z,26.38
2023-05-30T08:45:13.833Z,26.24
2023-05-30T08:46:13.918Z,26.23
2023-05-30T08:47:13.972Z,25.96
2023-05-30T08:48:14.042Z,25.89
2023-05-30T08:49:14.293Z,25.71
2023-05-30T08:50:14.108Z,25.56
2023-05-30T08:51:14.157Z,29.27
2023-05-30T08:52:14.335Z,28.87
2023-05-30T08:53:14.330Z,28.62
2023-05-30T08:54:14.752Z,29.03
2023-05-30T08:55:14.442Z,28.92
2023-05-30T08:56:14.477Z,29.39
2023-05-30T08:57:14.498Z,29.26
2023-05-30T08:58:14.603Z,29.32
2023-05-30T08:59:14.778Z,29.10
2023-05-30T09:00:14.699Z,29.03
2023-05-30T09:01:14.797Z,29.15
2023-05-30T09:02:14.789Z,29.18
2023-05-30T09:03:14.904Z,29.08
2023-05-30T09:04:14.872Z,29.21
2023-05-30T09:05:15.251Z,29.14
2023-05-30T09:06:14.975Z,29.13
2023-05-30T09:07:15.056Z,29.06
2023-05-30T09:08:15.103Z,28.64
2023-05-30T09:09:15.196Z,28.40
2023-05-30T09:10:15.225Z,28.53
2023-05-30T09:11:15.252Z,28.53
2023-05-30T09:12:15.368Z,28.56
2023-05-30T09:13:15.413Z,28.59
2023-05-30T09:14:15.798Z,28.68
2023-05-30T09:15:15.559Z,28.91
2023-05-30T09:16:15.690Z,29.06
2023-05-30T09:17:15.742Z,29.01
2023-05-30T09:18:15.783Z,29.00
2023-05-30T09:19:15.972Z,28.84
2023-05-30T09:20:16.048Z,28.70
2023-05-30T09:21:16.119Z,28.61
2023-05-30T09:22:16.202Z,28.37
2023-05-30T09:23:16.277Z,28.36
2023-05-30T09:24:16.787Z,28.47
2023-05-30T09:25:16.430Z,28.53
2023-05-30T09:26:16.555Z,28.55
2023-05-30T09:27:16.635Z,28.56
2023-05-30T09:28:16.734Z,28.58
2023-05-30T09:29:16.758Z,28.49
2023-05-30T09:30:16.872Z,28.29
2023-05-30T09:31:16.969Z,28.09
2023-05-30T09:32:16.983Z,27.99
2023-05-30T09:33:17.080Z,27.96
2023-05-30T09:34:17.170Z,28.05
2023-05-30T09:35:17.219Z,27.99
2023-05-30T09:36:17.397Z,27.95
2023-05-30T09:37:17.430Z,27.86
2023-05-30T09:38:17.516Z,27.77
2023-05-30T09:39:17.597Z,27.32
2023-05-30T09:40:17.780Z,27.12
2023-05-30T09:41:17.746Z,27.57
2023-05-30T09:42:17.827Z,28.64
2023-05-30T09:43:17.915Z,28.80
2023-05-30T09:44:18.320Z,27.76
2023-05-30T09:45:18.090Z,25.65
2023-05-30T09:46:18.190Z,25.35
2023-05-30T09:47:18.782Z,25.83
2023-05-30T09:48:18.353Z,25.75
2023-05-30T09:49:18.409Z,25.92
2023-05-30T09:50:18.934Z,26.08
2023-05-30T09:51:18.532Z,26.33
2023-05-30T09:52:18.643Z,26.50
2023-05-30T09:53:18.750Z,26.56
2023-05-30T09:54:19.822Z,26.72
2023-05-30T09:55:19.290Z,26.80
2023-05-30T09:56:19.014Z,26.83
2023-05-30T09:57:19.079Z,26.95
2023-05-30T09:58:19.157Z,27.02
2023-05-30T09:59:19.284Z,27.11
2023-05-30T10:00:19.346Z,27.08
2023-05-30T10:01:19.481Z,27.08
2023-05-30T10:02:19.536Z,27.14
2023-05-30T10:03:19.651Z,27.13
2023-05-30T10:04:19.740Z,27.22
2023-05-30T10:05:19.737Z,27.17
2023-05-30T10:06:19.781Z,27.27
2023-05-30T10:07:19.863Z,27.29
2023-05-30T10:08:19.918Z,27.29
2023-05-30T10:09:20.014Z,27.35
2023-05-30T10:10:20.028Z,27.34
2023-05-30T10:11:20.118Z,27.28
2023-05-30T10:12:20.147Z,27.37
2023-05-30T10:13:20.247Z,27.32
2023-05-30T10:14:20.301Z,27.28
2023-05-30T10:15:20.333Z,27.23
2023-05-30T10:16:20.506Z,27.15
2023-05-30T10:17:20.497Z,27.23
2023-05-30T10:18:20.527Z,27.16
2023-05-30T10:19:20.790Z,27.05
2023-05-30T10:20:20.725Z,26.65
2023-05-30T10:21:20.764Z,26.23
2023-05-30T10:22:20.789Z,26.41
2023-05-30T10:23:20.833Z,26.14
2023-05-30T10:24:20.892Z,26.33
2023-05-30T10:25:20.975Z,26.41
2023-05-30T10:26:20.992Z,26.50
2023-05-30T10:27:21.042Z,26.44
2023-05-30T10:28:21.088Z,26.43
2023-05-30T10:29:21.332Z,26.46
2023-05-30T10:30:21.258Z,26.40
2023-05-30T10:31:21.302Z,26.21
2023-05-30T10:32:21.329Z,25.91
2023-05-30T10:33:30.153Z,25.81
2023-05-30T10:34:22.794Z,25.91
2023-05-30T10:35:21.481Z,26.11
2023-05-30T10:36:21.453Z,26.17
2023-05-30T10:37:21.488Z,26.05
2023-05-30T10:38:21.524Z,24.85
2023-05-30T10:39:21.802Z,24.00
2023-05-30T10:40:21.531Z,23.87
2023-05-30T10:41:21.611Z,24.21
2023-05-30T10:42:21.614Z,25.23
2023-05-30T10:43:21.652Z,26.97
2023-05-30T10:44:21.823Z,26.49
2023-05-30T10:45:21.744Z,25.74
2023-05-30T10:46:21.872Z,25.78
2023-05-30T10:47:21.840Z,26.95
2023-05-30T10:48:21.827Z,26.94
2023-05-30T10:49:22.393Z,26.83
2023-05-30T10:50:21.839Z,25.92
2023-05-30T10:51:21.906Z,25.86
2023-05-30T10:52:21.987Z,26.41
2023-05-30T10:53:22.065Z,27.23
2023-05-30T10:54:22.140Z,26.55
2023-05-30T10:55:22.332Z,26.71
2023-05-30T10:56:22.308Z,27.13
2023-05-30T10:57:22.402Z,27.71
2023-05-30T10:58:22.454Z,26.01
2023-05-30T10:59:22.491Z,25.40
2023-05-30T11:00:22.812Z,30.07
2023-05-30T11:01:22.748Z,27.93
2023-05-30T11:02:22.742Z,28.60
2023-05-30T11:03:22.893Z,29.85
2023-05-30T11:04:22.944Z,28.91
2023-05-30T11:05:22.977Z,28.18
2023-05-30T11:06:23.012Z,28.08
2023-05-30T11:07:23.145Z,27.89
2023-05-30T11:08:23.232Z,27.11
2023-05-30T11:09:23.285Z,27.91
2023-05-30T11:10:23.358Z,28.58
2023-05-30T11:11:23.423Z,29.73
2023-05-30T11:12:23.526Z,30.15
2023-05-30T11:13:23.552Z,30.87
2023-05-30T11:14:23.622Z,28.92
2023-05-30T11:15:23.704Z,28.58
2023-05-30T11:16:23.777Z,28.55
2023-05-30T11:17:24.785Z,28.27
2023-05-30T11:18:23.847Z,28.03
2023-05-30T11:19:23.948Z,27.85
2023-05-30T11:20:24.062Z,27.64
2023-05-30T11:21:24.048Z,27.51
2023-05-30T11:22:24.135Z,27.37
2023-05-30T11:23:24.171Z,27.17
2023-05-30T11:24:24.247Z,27.06
2023-05-30T11:25:24.321Z,26.86
2023-05-30T11:26:24.388Z,26.66
2023-05-30T11:27:24.449Z,26.44
2023-05-30T11:28:24.498Z,26.30
2023-05-30T11:29:24.555Z,26.04
2023-05-30T11:30:24.825Z,25.82
2023-05-30T11:31:24.730Z,25.54
2023-05-30T11:32:25.022Z,24.88
2023-05-30T11:33:24.803Z,25.08
2023-05-30T11:34:24.875Z,24.85
2023-05-30T11:35:25.388Z,24.79
2023-05-30T11:36:24.941Z,24.49
2023-05-30T11:37:25.030Z,24.37
2023-05-30T11:38:25.040Z,24.10
2023-05-30T11:39:25.143Z,24.15
2023-05-30T11:40:25.173Z,24.15
2023-05-30T11:41:25.161Z,24.21
2023-05-30T11:42:25.237Z,24.08
2023-05-30T11:43:25.266Z,24.01
2023-05-30T11:44:25.307Z,23.79
2023-05-30T11:45:25.350Z,23.76
2023-05-30T11:46:25.404Z,23.86
2023-05-30T11:48:25.522Z,23.41
2023-05-30T11:49:25.442Z,23.25
2023-05-30T11:50:25.439Z,23.11
2023-05-30T11:51:26.478Z,23.17
2023-05-30T11:52:25.503Z,23.25
2023-05-30T11:53:25.490Z,23.21
2023-05-30T11:54:25.513Z,23.28
2023-05-30T11:55:25.507Z,23.13
2023-05-30T11:56:25.567Z,23.13
2023-05-30T11:57:25.561Z,22.98
2023-05-30T11:58:25.569Z,22.97
2023-05-30T11:59:25.602Z,22.89
2023-05-30T12:00:25.602Z,22.53
2023-05-30T12:01:25.626Z,22.59
2023-05-30T12:02:25.656Z,22.66
2023-05-30T12:03:25.680Z,22.65
2023-05-30T12:04:25.750Z,22.53
2023-05-30T12:05:25.834Z,22.41
2023-05-30T12:06:25.731Z,22.35
2023-05-30T12:07:25.699Z,22.38
2023-05-30T12:08:25.765Z,22.45
2023-05-30T12:09:25.739Z,22.51
2023-05-30T12:10:25.795Z,22.42
2023-05-30T12:11:25.831Z,22.38
2023-05-30T12:12:25.800Z,22.27
2023-05-30T12:13:25.850Z,22.14
2023-05-30T12:14:25.849Z,22.20
2023-05-30T12:15:25.861Z,22.36
2023-05-30T12:16:25.920Z,22.12
2023-05-30T12:17:26.001Z,21.93
2023-05-30T12:18:25.997Z,21.85
2023-05-30T12:20:14.654Z,22.11
2023-05-30T12:21:14.716Z,21.94
2023-05-30T12:22:14.617Z,22.03
2023-05-30T12:23:14.714Z,22.05
2023-05-30T12:24:14.657Z,21.94
2023-05-30T12:25:14.631Z,21.94
2023-05-30T12:26:14.669Z,21.96
2023-05-30T12:27:14.640Z,21.87
2023-05-30T12:28:14.637Z,21.62
2023-05-30T12:29:14.636Z,21.71
2023-05-30T12:30:14.636Z,21.53
2023-05-30T12:31:14.746Z,21.52
2023-05-30T12:32:14.660Z,21.68
2023-05-30T12:33:14.721Z,21.65
2023-05-30T12:34:14.683Z,21.53
2023-05-30T12:35:14.704Z,21.53
2023-05-30T12:36:25.850Z,21.53
2023-05-30T12:37:15.708Z,21.71
2023-05-30T12:38:14.715Z,21.70
2023-05-30T12:39:14.737Z,23.17
2023-05-30T12:40:14.692Z,22.71
2023-05-30T12:41:14.698Z,22.51
2023-05-30T12:42:14.743Z,23.37
2023-05-30T12:43:14.724Z,24.60
2023-05-30T12:44:14.714Z,23.81
2023-05-30T12:45:14.751Z,26.78
2023-05-30T12:46:14.822Z,27.30
2023-05-30T12:47:14.773Z,24.99
2023-05-30T12:48:14.862Z,24.39
2023-05-30T12:49:14.831Z,24.94
2023-05-30T12:50:14.791Z,24.28
2023-05-30T12:51:14.830Z,24.85
2023-05-30T12:52:14.783Z,25.88
2023-05-30T12:53:14.813Z,26.15
2023-05-30T12:54:14.881Z,27.66
2023-05-30T12:55:14.845Z,29.21
2023-05-30T12:56:14.876Z,31.10